Terminal Aerodrome Forecast
Issued by NWS Cleveland, OH

Home | Current Version | Previous Version | Graphics & Text | Print | Product List | Glossary On
Versions: 1 2 3 4 5 6 7 8 9 10 11 12 13 14 15 16 17 18 19 20 21 22 23 24 25 26 27
000
FTUS41 KCLE 250156 AAA
TAFTOL
TAF AMD
KTOL 250156Z 2502/2524 06011KT 5SM -SHRA OVC005
     FM251000 05006KT P6SM OVC010
     FM251500 02007KT P6SM OVC015
     FM251800 36007KT 4SM -SHRA BR OVC007
     FM252300 32007KT 4SM -SHRA BR OVC012=

USA.gov is the U.S. government's official web portal to all federal, state and local government web resources and services.